This is the latest recevied weather packets stored in our database for station/object W3JGB. If no packets are shown the sender has not sent any weather packets the latest 10 day(s).
| Time | Temp. | Humidity | Pressure | Rain* | Wind** | Luminosity | Snow |
|---|---|---|---|---|---|---|---|
| 1778105845 | 15° C | 86% | 1008.4 hPa | 0 mm | - | 35 W/m² | - |
| 1778103116 | 16.67° C | 85% | 1007.4 hPa | 0 mm | - | 59 W/m² | - |
| 1778102508 | 17.22° C | 84% | 1007.3 hPa | 0 mm | - | 113 W/m² | - |
| 1778101901 | 17.22° C | 88% | 1007 hPa | 0 mm | - | 123 W/m² | - |
| 1778099174 | 17.22° C | 89% | 1006.4 hPa | 0 mm | - | 36 W/m² | - |
| 1778096141 | 16.67° C | 94% | 1006.3 hPa | 0 mm | - | 214 W/m² | - |
| 1778095535 | 16.67° C | 96% | 1006.6 hPa | 1.78 mm | - | 228 W/m² | - |
| 1778095231 | 16.67° C | 93% | 1006.6 hPa | 0 mm | - | 54 W/m² | - |
| 1778094928 | 17.22° C | 92% | 1006.5 hPa | 0 mm | - | 26 W/m² | - |
| 1778094624 | 17.22° C | 91% | 1006.3 hPa | 0 mm | - | 59 W/m² | - |
| 1778092502 | 18.89° C | 87% | 1006.3 hPa | 0 mm | - | 335 W/m² | - |
| 1778092199 | 18.89° C | 86% | 1006.3 hPa | 0 mm | - | 347 W/m² | - |
| 1778091593 | 18.33° C | 89% | 1006.1 hPa | 0 mm | - | 364 W/m² | - |
| 1778090078 | 17.78° C | 89% | 1006.4 hPa | 0 mm | - | 133 W/m² | - |
| 1778088866 | 17.78° C | 91% | 1006.4 hPa | 0 mm | - | 249 W/m² | - |
| 1778088563 | 17.78° C | 91% | 1006.6 hPa | 0 mm | - | 267 W/m² | - |
| 1778088260 | 18.33° C | 92% | 1006.2 hPa | 0 mm | - | 369 W/m² | - |
| 1778087957 | 17.22° C | 92% | 1006.5 hPa | 0 mm | - | 379 W/m² | - |
| 1778084925 | 15° C | 99% | 1006.6 hPa | 0 mm | - | 170 W/m² | - |
| 1778084320 | 15° C | 99% | 1006.8 hPa | 0 mm | - | 184 W/m² | - |
| 1778083710 | 14.44° C | 99% | 1006.9 hPa | 0 mm | - | 84 W/m² | - |
| 1778078342 | 13.89° C | 99% | 1006.7 hPa | 1.27 mm | - | 59 W/m² | - |
| 1778077737 | 13.89° C | 99% | 1006.9 hPa | 0 mm | - | 40 W/m² | - |
| 1778077132 | 13.89° C | 99% | 1006.7 hPa | 3.05 mm | - | 53 W/m² | - |
| 1778076528 | 13.89° C | 99% | 1006.7 hPa | 0 mm | - | 44 W/m² | - |
* Rain latest hour (hover to see other rain measurements)
** Current wind speed in m/s (hover to see current wind gust speed)